createdAt,value
2022-07-26T00:00:26.813Z,6.57
2022-07-26T00:02:55.125Z,6.53
2022-07-26T00:05:23.249Z,6.40
2022-07-26T00:08:11.106Z,6.73
2022-07-26T00:10:42.312Z,6.40
2022-07-26T00:13:11.177Z,6.80
2022-07-26T00:15:40.558Z,6.53
2022-07-26T00:18:23.158Z,6.63
2022-07-26T00:20:51.603Z,6.63
2022-07-26T00:23:21.184Z,6.93
2022-07-26T00:25:49.249Z,7.13
2022-07-26T00:28:17.521Z,6.47
2022-07-26T00:30:46.661Z,6.87
2022-07-26T00:33:15.360Z,7.10
2022-07-26T00:35:43.505Z,6.87
2022-07-26T00:38:11.613Z,6.83
2022-07-26T00:40:41.103Z,6.83
2022-07-26T00:43:09.806Z,6.57
2022-07-26T00:45:50.475Z,7.23
2022-07-26T00:48:19.156Z,6.83
2022-07-26T00:50:47.905Z,7.57
2022-07-26T00:53:16.117Z,7.43
2022-07-26T00:55:45.723Z,7.23
2022-07-26T00:58:13.864Z,7.37
2022-07-26T01:00:42.008Z,7.10
2022-07-26T01:03:11.494Z,6.90
2022-07-26T01:05:39.777Z,7.17
2022-07-26T01:08:07.898Z,6.80
2022-07-26T01:10:39.496Z,7.80
2022-07-26T01:13:10.693Z,6.60
2022-07-26T01:15:39.290Z,8.20
2022-07-26T01:18:07.462Z,7.67
2022-07-26T01:20:36.036Z,7.80
2022-07-26T01:23:05.801Z,7.77
2022-07-26T01:25:43.158Z,8.00
2022-07-26T01:28:19.819Z,8.10
2022-07-26T01:30:48.808Z,7.47
2022-07-26T01:33:19.130Z,8.53
2022-07-26T01:35:47.310Z,8.00
2022-07-26T01:38:16.973Z,8.60
2022-07-26T01:40:45.188Z,7.73
2022-07-26T01:43:13.509Z,8.10
2022-07-26T01:45:41.801Z,8.83
2022-07-26T01:48:10.897Z,8.00
2022-07-26T01:50:39.228Z,8.20
2022-07-26T01:53:07.455Z,7.77
2022-07-26T01:55:37.705Z,7.93
2022-07-26T01:58:06.613Z,8.03
2022-07-26T02:00:38.067Z,8.67
2022-07-26T02:03:06.643Z,7.63
2022-07-26T02:05:34.901Z,7.93
2022-07-26T02:08:03.162Z,8.13
2022-07-26T02:10:56.246Z,8.33
2022-07-26T02:13:26.318Z,7.93
2022-07-26T02:15:54.667Z,8.10
2022-07-26T02:18:22.884Z,8.10
2022-07-26T02:20:51.148Z,8.70
2022-07-26T02:23:22.294Z,8.80
2022-07-26T02:25:54.886Z,8.23
2022-07-26T02:28:25.056Z,7.97
2022-07-26T02:30:53.466Z,8.53
2022-07-26T02:33:22.701Z,8.33
2022-07-26T02:35:50.764Z,8.20
2022-07-26T02:38:41.115Z,8.30
2022-07-26T02:41:10.624Z,8.27
2022-07-26T02:43:38.885Z,8.27
2022-07-26T02:46:07.419Z,7.73
2022-07-26T02:48:35.683Z,8.20
2022-07-26T02:51:04.141Z,8.30
2022-07-26T02:53:39.498Z,7.30
2022-07-26T02:56:07.919Z,7.20
2022-07-26T02:58:38.246Z,7.07
2022-07-26T03:01:06.851Z,6.47
2022-07-26T03:03:38.278Z,6.80
2022-07-26T03:06:06.655Z,5.93
2022-07-26T03:08:39.348Z,6.40
2022-07-26T03:11:12.015Z,5.50
2022-07-26T03:13:42.579Z,5.47
2022-07-26T03:16:10.754Z,5.90
2022-07-26T03:18:39.145Z,4.63
2022-07-26T03:21:10.449Z,4.40
2022-07-26T03:23:38.381Z,4.47
2022-07-26T03:26:06.603Z,4.50
2022-07-26T03:28:37.743Z,5.37
2022-07-26T03:31:07.289Z,5.30
2022-07-26T03:33:38.810Z,5.40
2022-07-26T03:36:11.517Z,5.70
2022-07-26T03:38:43.647Z,4.80
2022-07-26T03:41:13.813Z,5.30
2022-07-26T03:43:42.288Z,5.23
2022-07-26T03:46:13.582Z,4.70
2022-07-26T03:48:41.667Z,5.40
2022-07-26T03:51:11.001Z,5.03
2022-07-26T03:53:40.019Z,5.60
2022-07-26T03:56:25.606Z,5.37
2022-07-26T03:58:54.221Z,5.17
2022-07-26T04:01:32.098Z,4.87
2022-07-26T04:04:00.788Z,5.13
2022-07-26T04:06:31.976Z,5.43
2022-07-26T04:09:00.423Z,5.30
2022-07-26T04:11:56.133Z,5.80
2022-07-26T04:14:24.151Z,4.70
2022-07-26T04:17:10.182Z,5.20
2022-07-26T04:19:40.459Z,5.40
2022-07-26T04:22:08.536Z,4.97
2022-07-26T04:24:36.717Z,5.47
2022-07-26T04:27:05.112Z,4.67
2022-07-26T04:29:33.220Z,5.13
2022-07-26T04:32:01.505Z,5.40
2022-07-26T04:34:31.064Z,5.07
2022-07-26T04:36:59.164Z,4.40
2022-07-26T04:39:35.538Z,4.60
2022-07-26T04:42:03.668Z,4.50
2022-07-26T04:44:31.909Z,5.27
2022-07-26T04:46:59.977Z,5.10
2022-07-26T04:49:31.636Z,5.43
2022-07-26T04:52:01.218Z,4.97
2022-07-26T04:54:36.584Z,5.20
2022-07-26T04:57:12.579Z,5.10
2022-07-26T04:59:40.746Z,4.30
2022-07-26T05:02:08.976Z,4.80
2022-07-26T05:04:37.166Z,5.10
2022-07-26T05:07:06.681Z,4.87
2022-07-26T05:09:37.846Z,4.77
2022-07-26T05:12:08.029Z,5.23
2022-07-26T05:14:39.094Z,4.80
2022-07-26T05:17:09.040Z,4.73
2022-07-26T05:19:39.123Z,5.40
2022-07-26T05:22:09.267Z,4.30
2022-07-26T05:24:37.366Z,4.83
2022-07-26T05:27:05.833Z,5.33
2022-07-26T05:29:40.451Z,4.90
2022-07-26T05:32:09.356Z,4.70
2022-07-26T05:34:37.412Z,4.47
2022-07-26T05:37:05.593Z,5.33
2022-07-26T05:39:35.465Z,5.00
2022-07-26T05:42:04.052Z,5.00
2022-07-26T05:44:33.037Z,4.80
2022-07-26T05:47:01.265Z,5.40
2022-07-26T05:49:39.711Z,5.17
2022-07-26T05:52:09.362Z,4.90
2022-07-26T05:54:39.103Z,4.77
2022-07-26T05:57:07.330Z,4.50
2022-07-26T05:59:35.374Z,4.30
2022-07-26T06:02:03.560Z,4.90
2022-07-26T06:04:35.052Z,4.20
2022-07-26T06:07:03.999Z,4.07
2022-07-26T06:09:33.029Z,3.93
2022-07-26T06:12:04.565Z,4.30
2022-07-26T06:14:32.863Z,4.13
2022-07-26T06:17:01.281Z,4.40
2022-07-26T06:19:33.593Z,4.57
2022-07-26T06:22:01.886Z,4.33
2022-07-26T06:24:39.530Z,4.30
2022-07-26T06:27:09.295Z,4.60
2022-07-26T06:29:37.474Z,4.40
2022-07-26T06:32:05.991Z,4.60
2022-07-26T06:34:34.193Z,4.20
2022-07-26T06:37:02.298Z,4.17
2022-07-26T06:39:41.289Z,4.53
2022-07-26T06:42:11.117Z,4.63
2022-07-26T06:44:39.407Z,4.60
2022-07-26T06:47:07.693Z,4.43
2022-07-26T06:49:36.284Z,4.50
2022-07-26T06:52:04.862Z,4.10
2022-07-26T06:54:34.884Z,4.13
2022-07-26T06:57:03.466Z,3.93
2022-07-26T06:59:36.564Z,4.50
2022-07-26T07:02:04.986Z,4.00
2022-07-26T07:04:34.549Z,3.97
2022-07-26T07:07:06.121Z,3.53
2022-07-26T07:09:38.794Z,3.97
2022-07-26T07:12:09.715Z,4.00
2022-07-26T07:14:40.786Z,4.10
2022-07-26T07:17:13.034Z,3.23
2022-07-26T07:19:43.965Z,3.47
2022-07-26T07:22:12.951Z,4.10
2022-07-26T07:24:42.072Z,4.03
2022-07-26T07:27:10.897Z,3.63
2022-07-26T07:29:42.016Z,3.33
2022-07-26T07:32:15.792Z,3.17
2022-07-26T07:34:47.649Z,3.87
2022-07-26T07:37:16.197Z,3.20
2022-07-26T07:39:44.440Z,3.73
2022-07-26T07:42:18.411Z,3.47
2022-07-26T07:44:50.316Z,3.40
2022-07-26T07:47:19.447Z,3.63
2022-07-26T07:49:47.637Z,3.13
2022-07-26T07:52:16.077Z,3.10
2022-07-26T07:54:46.393Z,3.30
2022-07-26T07:57:14.396Z,3.17
2022-07-26T07:59:42.869Z,3.13
2022-07-26T08:02:15.204Z,3.33
2022-07-26T08:04:43.377Z,3.70
2022-07-26T08:07:11.493Z,3.23
2022-07-26T08:09:42.824Z,3.37
2022-07-26T08:12:12.423Z,3.00
2022-07-26T08:14:41.441Z,3.17
2022-07-26T08:17:10.040Z,3.10
2022-07-26T08:19:42.041Z,3.13
2022-07-26T08:22:11.731Z,2.90
2022-07-26T08:24:40.756Z,3.10
2022-07-26T08:27:08.927Z,2.53
2022-07-26T08:29:37.225Z,3.20
2022-07-26T08:32:05.953Z,2.40
2022-07-26T08:34:34.996Z,2.77
2022-07-26T08:37:17.121Z,2.30
2022-07-26T08:39:45.887Z,2.20
2022-07-26T08:42:16.494Z,2.10
2022-07-26T08:44:46.000Z,2.07
2022-07-26T08:47:14.781Z,2.03
2022-07-26T08:49:43.966Z,2.30
2022-07-26T08:52:17.385Z,2.30
2022-07-26T08:54:47.483Z,2.87
2022-07-26T08:57:15.600Z,2.03
2022-07-26T08:59:44.346Z,2.27
2022-07-26T09:02:14.770Z,2.23
2022-07-26T09:04:47.414Z,2.17
2022-07-26T09:07:24.902Z,2.00
2022-07-26T09:09:59.926Z,1.80
2022-07-26T09:12:31.192Z,2.00
2022-07-26T09:15:00.425Z,1.70
2022-07-26T09:17:40.802Z,1.90
2022-07-26T09:20:11.834Z,1.93
2022-07-26T09:23:01.978Z,1.87
2022-07-26T09:25:32.294Z,1.60
2022-07-26T09:28:00.877Z,1.70
2022-07-26T09:30:30.489Z,1.37
2022-07-26T09:33:02.455Z,1.40
2022-07-26T09:35:51.095Z,1.60
2022-07-26T09:38:24.358Z,1.63
2022-07-26T09:40:55.561Z,1.43
2022-07-26T09:43:24.546Z,1.20
2022-07-26T09:46:05.551Z,1.40
2022-07-26T09:48:59.536Z,1.40
2022-07-26T09:51:43.210Z,1.80
2022-07-26T09:54:18.437Z,1.70
2022-07-26T09:56:50.863Z,1.43
2022-07-26T09:59:20.220Z,1.50
2022-07-26T10:01:49.271Z,1.40
2022-07-26T10:04:17.526Z,1.30
2022-07-26T10:06:45.711Z,1.53
2022-07-26T10:09:19.889Z,1.53
2022-07-26T10:11:54.331Z,1.40
2022-07-26T10:14:42.509Z,1.20
2022-07-26T10:17:46.859Z,1.17
2022-07-26T10:20:45.727Z,1.37
2022-07-26T10:23:52.637Z,1.00
2022-07-26T10:26:45.559Z,1.37
2022-07-26T10:29:28.790Z,1.00
2022-07-26T10:32:21.578Z,1.40
2022-07-26T10:34:49.717Z,1.40
2022-07-26T10:37:29.833Z,1.07
2022-07-26T10:40:27.954Z,1.03
2022-07-26T10:43:37.975Z,1.00
2022-07-26T10:46:28.378Z,0.90
2022-07-26T10:48:57.995Z,0.83
2022-07-26T10:51:27.972Z,0.90
2022-07-26T10:54:03.779Z,0.97
2022-07-26T10:56:33.765Z,1.33
2022-07-26T10:59:04.427Z,0.90
2022-07-26T11:01:36.457Z,1.20
2022-07-26T11:04:05.527Z,1.17
2022-07-26T11:06:36.062Z,1.50
2022-07-26T11:09:12.706Z,0.93
2022-07-26T11:11:47.095Z,1.50
2022-07-26T11:14:18.811Z,1.00
2022-07-26T11:16:50.921Z,1.10
2022-07-26T11:19:21.417Z,1.23
2022-07-26T11:21:55.475Z,1.37
2022-07-26T11:24:23.785Z,1.10
2022-07-26T11:26:52.557Z,1.33
2022-07-26T11:29:35.644Z,1.10
2022-07-26T11:32:16.408Z,1.20
2022-07-26T11:34:46.201Z,1.33
2022-07-26T11:37:14.850Z,1.10
2022-07-26T11:39:42.930Z,1.40
2022-07-26T11:44:57.436Z,1.10
2022-07-26T11:47:26.728Z,0.90
2022-07-26T11:52:44.285Z,1.20
2022-07-26T11:55:12.678Z,0.90
2022-07-26T11:57:40.901Z,1.50
2022-07-26T12:00:12.509Z,1.13
2022-07-26T12:02:40.841Z,0.90
2022-07-26T12:05:17.982Z,1.07
2022-07-26T12:08:00.883Z,1.10
2022-07-26T12:10:30.609Z,1.20
2022-07-26T12:13:09.711Z,0.90
2022-07-26T12:15:56.938Z,0.80
2022-07-26T12:18:27.388Z,1.00
2022-07-26T12:21:05.460Z,1.03
2022-07-26T12:23:45.758Z,1.57
2022-07-26T12:26:21.963Z,1.03
2022-07-26T12:28:52.517Z,1.20
2022-07-26T12:31:27.805Z,1.07
2022-07-26T12:33:56.422Z,1.10
2022-07-26T12:36:29.552Z,1.10
2022-07-26T12:38:59.273Z,1.10
2022-07-26T12:41:35.152Z,1.27
2022-07-26T12:44:05.438Z,1.17
2022-07-26T12:46:36.058Z,0.97
2022-07-26T12:49:05.429Z,1.10
2022-07-26T12:51:33.675Z,1.43
2022-07-26T12:54:01.695Z,1.00
2022-07-26T12:56:29.710Z,1.10
2022-07-26T12:59:02.022Z,1.43
2022-07-26T13:01:40.430Z,1.70
2022-07-26T13:04:09.128Z,1.40
2022-07-26T13:06:37.766Z,1.00
2022-07-26T13:09:07.765Z,0.93
2022-07-26T13:11:35.713Z,1.20
2022-07-26T13:14:03.667Z,1.10
2022-07-26T13:16:45.344Z,2.00
2022-07-26T13:19:13.464Z,1.10
2022-07-26T13:21:41.893Z,1.17
2022-07-26T13:24:11.417Z,0.90
2022-07-26T13:26:41.139Z,1.40
2022-07-26T13:29:09.823Z,1.10
2022-07-26T13:31:40.007Z,1.10
2022-07-26T13:34:09.641Z,1.00
2022-07-26T13:36:38.030Z,1.60
2022-07-26T13:39:06.953Z,1.17
2022-07-26T13:41:35.840Z,1.20
2022-07-26T13:44:06.547Z,1.13
2022-07-26T13:46:34.778Z,1.20
2022-07-26T13:49:04.373Z,1.20
2022-07-26T13:51:53.915Z,1.10
2022-07-26T13:54:26.516Z,1.00
2022-07-26T13:56:55.415Z,1.10
2022-07-26T13:59:23.621Z,0.97
2022-07-26T14:01:52.203Z,1.27
2022-07-26T14:04:34.666Z,1.40
2022-07-26T14:07:04.560Z,0.93
2022-07-26T14:09:34.163Z,1.07
2022-07-26T14:12:02.798Z,1.30
2022-07-26T14:14:31.229Z,1.40
2022-07-26T14:16:59.533Z,0.90
2022-07-26T14:19:27.611Z,1.33
2022-07-26T14:21:58.918Z,0.87
2022-07-26T14:24:30.504Z,1.37
2022-07-26T14:26:59.815Z,1.03
2022-07-26T14:29:30.001Z,1.27
2022-07-26T14:31:58.227Z,1.10
2022-07-26T14:34:27.353Z,1.20
2022-07-26T14:36:55.452Z,0.80
2022-07-26T14:39:24.132Z,1.20
2022-07-26T14:41:53.534Z,1.23
2022-07-26T14:44:23.515Z,0.87
2022-07-26T14:46:51.733Z,0.90
2022-07-26T14:49:20.408Z,1.10
2022-07-26T14:51:48.804Z,1.20
2022-07-26T14:54:18.019Z,1.07
2022-07-26T14:56:45.962Z,1.10
2022-07-26T14:59:15.592Z,0.60
2022-07-26T15:01:43.644Z,1.20
2022-07-26T15:04:13.963Z,1.00
2022-07-26T15:06:42.672Z,1.50
2022-07-26T15:09:10.687Z,1.00
2022-07-26T15:11:42.289Z,1.40
2022-07-26T15:14:10.748Z,1.17
2022-07-26T15:16:40.507Z,1.10
2022-07-26T15:19:08.423Z,0.97
2022-07-26T15:21:36.570Z,1.20
2022-07-26T15:24:04.809Z,0.87
2022-07-26T15:26:32.834Z,1.40
2022-07-26T15:29:00.863Z,1.30
2022-07-26T15:31:37.031Z,1.30
2022-07-26T15:34:08.834Z,1.20
2022-07-26T15:36:37.368Z,1.17
2022-07-26T15:39:16.598Z,0.90
2022-07-26T15:41:45.792Z,1.10
2022-07-26T15:44:14.547Z,0.80
2022-07-26T15:46:46.147Z,0.93
2022-07-26T15:49:18.526Z,1.13
2022-07-26T15:51:48.588Z,1.13
2022-07-26T15:54:17.168Z,0.87
2022-07-26T15:56:46.209Z,1.10
2022-07-26T15:59:14.177Z,0.90
2022-07-26T16:01:42.228Z,1.20
2022-07-26T16:04:10.678Z,0.90
2022-07-26T16:06:51.312Z,1.80
2022-07-26T16:09:22.080Z,1.30
2022-07-26T16:11:52.512Z,1.13
2022-07-26T16:14:28.493Z,1.00
2022-07-26T16:16:59.350Z,1.00
2022-07-26T16:19:27.583Z,0.90
2022-07-26T16:21:57.064Z,0.90
2022-07-26T16:24:39.762Z,1.57
2022-07-26T16:27:08.010Z,1.30
2022-07-26T16:29:36.606Z,1.80
2022-07-26T16:32:04.714Z,1.27
2022-07-26T16:34:34.931Z,1.20
2022-07-26T16:37:04.683Z,1.30
2022-07-26T16:39:32.712Z,1.23
2022-07-26T16:42:06.829Z,1.00
2022-07-26T16:44:36.396Z,0.90
2022-07-26T16:47:05.517Z,0.97
2022-07-26T16:49:33.745Z,1.20
2022-07-26T16:52:01.724Z,1.30
2022-07-26T16:54:31.333Z,1.33
2022-07-26T16:56:59.469Z,1.10
2022-07-26T16:59:28.717Z,1.30
2022-07-26T17:01:56.982Z,1.07
2022-07-26T17:04:29.827Z,1.13
2022-07-26T17:07:23.348Z,1.00
2022-07-26T17:09:48.323Z,1.10
2022-07-26T17:12:35.255Z,1.37
2022-07-26T17:15:03.477Z,1.30
2022-07-26T17:17:32.415Z,1.93
2022-07-26T17:20:00.710Z,1.57
2022-07-26T17:22:28.676Z,1.20
2022-07-26T17:25:00.582Z,1.40
2022-07-26T17:27:28.615Z,1.20
2022-07-26T17:29:56.665Z,1.20
2022-07-26T17:32:25.293Z,1.63
2022-07-26T17:34:54.129Z,1.20
2022-07-26T17:37:22.174Z,1.13
2022-07-26T17:39:53.411Z,1.13
2022-07-26T17:42:23.646Z,1.50
2022-07-26T17:44:52.372Z,1.57
2022-07-26T17:47:29.418Z,1.40
2022-07-26T17:50:14.137Z,1.10
2022-07-26T17:52:48.271Z,1.17
2022-07-26T17:55:16.713Z,1.33
2022-07-26T17:57:46.230Z,1.40
2022-07-26T18:00:15.547Z,1.33
2022-07-26T18:02:43.607Z,1.37
2022-07-26T18:05:12.246Z,1.20
2022-07-26T18:07:40.872Z,1.43
2022-07-26T18:10:11.828Z,1.27
2022-07-26T18:12:40.295Z,1.10
2022-07-26T18:15:11.051Z,1.20
2022-07-26T18:17:39.470Z,1.50
2022-07-26T18:20:09.089Z,1.60
2022-07-26T18:22:37.419Z,1.60
2022-07-26T18:25:06.105Z,0.93
2022-07-26T18:27:34.362Z,1.40
2022-07-26T18:30:02.645Z,1.27
2022-07-26T18:32:32.486Z,1.27
2022-07-26T18:35:00.350Z,1.37
2022-07-26T18:37:28.616Z,1.33
2022-07-26T18:39:58.235Z,1.10
2022-07-26T18:42:26.879Z,1.50
2022-07-26T18:44:55.568Z,1.00
2022-07-26T18:47:23.820Z,1.73
2022-07-26T18:49:53.124Z,1.33
2022-07-26T18:52:31.761Z,1.43
2022-07-26T18:55:02.415Z,1.53
2022-07-26T18:57:30.462Z,1.33
2022-07-26T18:59:58.424Z,1.27
2022-07-26T19:02:26.497Z,1.20
2022-07-26T19:04:56.007Z,1.30
2022-07-26T19:07:24.111Z,1.50
2022-07-26T19:09:58.398Z,1.60
2022-07-26T19:12:28.251Z,1.50
2022-07-26T19:14:56.545Z,1.53
2022-07-26T19:17:24.642Z,2.33
2022-07-26T19:19:52.771Z,1.40
2022-07-26T19:22:23.975Z,1.63
2022-07-26T19:24:52.034Z,1.33
2022-07-26T19:27:20.342Z,1.40
2022-07-26T19:29:49.562Z,1.50
2022-07-26T19:32:17.910Z,1.60
2022-07-26T19:34:46.149Z,1.50
2022-07-26T19:37:24.309Z,1.67
2022-07-26T19:39:55.908Z,1.33
2022-07-26T19:42:23.920Z,1.60
2022-07-26T19:44:52.180Z,1.50
2022-07-26T19:47:21.201Z,1.47
2022-07-26T19:49:49.350Z,1.37
2022-07-26T19:52:17.438Z,1.50
2022-07-26T19:54:45.518Z,1.37
2022-07-26T19:57:15.204Z,1.47
2022-07-26T19:59:43.141Z,1.20
2022-07-26T20:02:11.720Z,1.67
2022-07-26T20:04:45.470Z,1.30
2022-07-26T20:07:19.778Z,1.43
2022-07-26T20:09:50.103Z,1.93
2022-07-26T20:12:21.939Z,1.23
2022-07-26T20:14:50.063Z,1.60
2022-07-26T20:17:18.879Z,1.53
2022-07-26T20:19:46.975Z,1.00
2022-07-26T20:22:15.096Z,1.63
2022-07-26T20:24:43.024Z,1.27
2022-07-26T20:27:11.767Z,1.67
2022-07-26T20:29:41.182Z,1.27
2022-07-26T20:32:09.538Z,1.30
2022-07-26T20:34:37.582Z,1.93
2022-07-26T20:37:05.689Z,1.47
2022-07-26T20:39:34.814Z,2.03
2022-07-26T20:42:03.263Z,1.73
2022-07-26T20:44:32.002Z,1.73
2022-07-26T20:47:01.320Z,1.40
2022-07-26T20:49:29.738Z,2.00
2022-07-26T20:51:58.198Z,1.63
2022-07-26T20:54:26.262Z,2.13
2022-07-26T20:56:54.392Z,1.23
2022-07-26T20:59:25.549Z,1.90
2022-07-26T21:01:54.019Z,1.77
2022-07-26T21:04:23.802Z,1.53
2022-07-26T21:06:51.874Z,1.60
2022-07-26T21:09:23.746Z,1.97
2022-07-26T21:11:52.453Z,1.47
2022-07-26T21:14:20.789Z,1.90
2022-07-26T21:16:49.075Z,1.70
2022-07-26T21:19:17.715Z,2.00
2022-07-26T21:21:47.150Z,1.30
2022-07-26T21:24:15.364Z,1.97
2022-07-26T21:26:43.337Z,1.70
2022-07-26T21:29:12.797Z,1.80
2022-07-26T21:31:41.342Z,1.20
2022-07-26T21:34:10.745Z,1.90
2022-07-26T21:36:40.465Z,1.73
2022-07-26T21:39:10.874Z,2.00
2022-07-26T21:41:39.302Z,1.50
2022-07-26T21:44:07.647Z,1.60
2022-07-26T21:46:36.048Z,1.73
2022-07-26T21:49:05.711Z,1.80
2022-07-26T21:51:35.865Z,1.83
2022-07-26T21:54:04.006Z,1.67
2022-07-26T21:56:34.365Z,1.97
2022-07-26T21:59:02.478Z,2.07
2022-07-26T22:01:30.615Z,1.60
2022-07-26T22:03:58.636Z,1.70
2022-07-26T22:06:26.816Z,1.80
2022-07-26T22:08:56.692Z,1.63
2022-07-26T22:11:24.809Z,2.20
2022-07-26T22:13:54.293Z,1.73
2022-07-26T22:16:22.325Z,1.67
2022-07-26T22:18:50.713Z,1.60
2022-07-26T22:21:18.995Z,2.10
2022-07-26T22:24:12.175Z,2.20
2022-07-26T22:26:42.223Z,1.83
2022-07-26T22:29:12.116Z,2.20
2022-07-26T22:31:40.377Z,2.13
2022-07-26T22:34:08.518Z,1.50
2022-07-26T22:36:36.596Z,1.83
2022-07-26T22:39:05.507Z,3.50
2022-07-26T22:41:57.488Z,1.93
2022-07-26T22:44:27.126Z,2.20
2022-07-26T22:46:55.458Z,1.70
2022-07-26T22:49:23.552Z,1.50
2022-07-26T22:51:52.120Z,1.27
2022-07-26T22:54:20.388Z,1.70
2022-07-26T22:56:49.233Z,1.80
2022-07-26T22:59:17.536Z,2.23
2022-07-26T23:01:46.866Z,1.57
2022-07-26T23:04:14.954Z,2.20
2022-07-26T23:06:44.607Z,1.60
2022-07-26T23:09:14.967Z,1.70
2022-07-26T23:11:43.047Z,1.30
2022-07-26T23:14:12.039Z,1.83
2022-07-26T23:16:40.383Z,1.80
2022-07-26T23:19:10.175Z,1.60
2022-07-26T23:21:38.720Z,1.60
2022-07-26T23:24:07.122Z,2.00
2022-07-26T23:26:35.220Z,1.50
2022-07-26T23:29:03.345Z,1.60
2022-07-26T23:31:31.718Z,1.80
2022-07-26T23:33:59.906Z,1.80
2022-07-26T23:36:30.032Z,1.80
2022-07-26T23:39:00.001Z,2.10
2022-07-26T23:41:29.245Z,1.40
2022-07-26T23:43:58.267Z,2.13
2022-07-26T23:46:26.519Z,1.80
2022-07-26T23:48:55.813Z,1.83
2022-07-26T23:51:24.180Z,1.63
2022-07-26T23:54:01.466Z,1.83
2022-07-26T23:56:29.503Z,1.60
2022-07-26T23:58:58.090Z,1.87
